createdAt,value
2022-12-14T00:02:20.678Z,100372.63
2022-12-14T00:04:48.899Z,100368.09
2022-12-14T00:07:17.223Z,100371.22
2022-12-14T00:09:47.103Z,100367.44
2022-12-14T00:12:15.376Z,100365.97
2022-12-14T00:14:43.610Z,100335.94
2022-12-14T00:17:13.227Z,100318.22
2022-12-14T00:19:41.450Z,100359.78
2022-12-14T00:22:11.117Z,100337.88
2022-12-14T00:24:39.543Z,100330.41
2022-12-14T00:27:07.760Z,100211.13
2022-12-14T00:29:36.628Z,100295.03
2022-12-14T00:32:05.996Z,100326.72
2022-12-14T00:34:35.646Z,100314.03
2022-12-14T00:37:03.987Z,100306.63
2022-12-14T00:39:32.286Z,100316.88
2022-12-14T00:42:00.581Z,100309.78
2022-12-14T00:44:28.884Z,100308.66
2022-12-14T00:46:57.187Z,100313.00
2022-12-14T00:49:25.437Z,100310.28
2022-12-14T00:51:55.035Z,100303.69
2022-12-14T00:54:23.891Z,100301.13
2022-12-14T00:56:52.709Z,100290.53
2022-12-14T00:59:26.960Z,100287.16
2022-12-14T01:01:58.248Z,100288.97
2022-12-14T01:04:26.635Z,100286.72
2022-12-14T01:06:56.536Z,100290.00
2022-12-14T01:09:27.409Z,100283.63
2022-12-14T01:11:55.672Z,100281.97
2022-12-14T01:14:24.279Z,100264.59
2022-12-14T01:16:52.814Z,100279.63
2022-12-14T01:19:21.012Z,100277.97
2022-12-14T01:21:49.271Z,100287.69
2022-12-14T01:24:18.918Z,100276.44
2022-12-14T01:26:47.168Z,100281.69
2022-12-14T01:29:16.324Z,100285.00
2022-12-14T01:31:48.621Z,100295.47
2022-12-14T01:34:17.921Z,100305.97
2022-12-14T01:36:46.321Z,100303.47
2022-12-14T01:39:18.361Z,100287.38
2022-12-14T01:41:49.459Z,100292.75
2022-12-14T01:44:57.514Z,100287.50
2022-12-14T01:47:32.227Z,100288.47
2022-12-14T01:50:09.458Z,100292.06
2022-12-14T01:52:42.400Z,100279.16
2022-12-14T01:55:16.109Z,100278.38
2022-12-14T01:57:50.264Z,100281.03
2022-12-14T02:00:18.606Z,100275.84
2022-12-14T02:02:53.443Z,100274.22
2022-12-14T02:05:23.781Z,100281.03
2022-12-14T02:07:55.752Z,100277.66
2022-12-14T02:10:29.241Z,100286.22
2022-12-14T02:13:04.721Z,100283.59
2022-12-14T02:15:33.849Z,100283.63
2022-12-14T02:18:04.867Z,100279.03
2022-12-14T02:20:41.992Z,100279.06
2022-12-14T02:23:38.965Z,100276.56
2022-12-14T02:26:47.766Z,100279.19
2022-12-14T02:29:51.682Z,100274.47
2022-12-14T02:32:53.981Z,100260.00
2022-12-14T02:35:38.552Z,100276.88
2022-12-14T02:38:22.015Z,100271.88
2022-12-14T02:41:03.214Z,100268.63
2022-12-14T02:43:36.435Z,100266.22
2022-12-14T02:46:21.118Z,100264.53
2022-12-14T02:48:55.066Z,100264.47
2022-12-14T02:51:30.317Z,100268.13
2022-12-14T02:54:03.455Z,100265.44
2022-12-14T02:56:38.256Z,100259.38
2022-12-14T02:59:10.434Z,100258.03
2022-12-14T03:01:41.298Z,100245.13
2022-12-14T03:04:10.041Z,100137.31
2022-12-14T03:06:38.374Z,100257.19
2022-12-14T03:09:14.467Z,100245.31
2022-12-14T03:11:50.653Z,100239.97
2022-12-14T03:14:25.497Z,100233.25
2022-12-14T03:16:59.863Z,100233.84
2022-12-14T03:19:35.409Z,100221.22
2022-12-14T03:22:09.162Z,100214.38
2022-12-14T03:24:42.822Z,100216.28
2022-12-14T03:27:16.754Z,100214.56
2022-12-14T03:29:50.622Z,100212.56
2022-12-14T03:32:24.919Z,100199.47
2022-12-14T03:34:58.601Z,100209.63
2022-12-14T03:37:35.868Z,100202.84
2022-12-14T03:40:04.712Z,100203.03
2022-12-14T03:42:42.717Z,100199.50
2022-12-14T03:45:22.885Z,100190.53
2022-12-14T03:48:02.523Z,100198.72
2022-12-14T03:50:38.726Z,100192.72
2022-12-14T03:53:14.197Z,100183.00
2022-12-14T03:55:49.157Z,100182.66
2022-12-14T03:58:36.216Z,100178.56
2022-12-14T04:01:12.145Z,100176.03
2022-12-14T04:03:55.482Z,100179.63
2022-12-14T04:06:34.281Z,100177.84
2022-12-14T04:09:13.603Z,100178.06
2022-12-14T04:12:06.921Z,100172.09
2022-12-14T04:14:56.283Z,100177.97
2022-12-14T04:17:47.725Z,100171.66
2022-12-14T04:20:23.352Z,100175.63
2022-12-14T04:22:58.428Z,100175.97
2022-12-14T04:25:49.426Z,100172.06
2022-12-14T04:28:41.093Z,100174.13
2022-12-14T04:31:12.617Z,100162.34
2022-12-14T04:33:49.258Z,100153.44
2022-12-14T04:36:25.930Z,100149.91
2022-12-14T04:39:01.287Z,100148.31
2022-12-14T04:41:36.412Z,100153.25
2022-12-14T04:44:12.491Z,100147.56
2022-12-14T04:46:42.640Z,100147.81
2022-12-14T04:49:20.492Z,100155.91
2022-12-14T04:52:01.914Z,100153.16
2022-12-14T04:54:43.697Z,100148.50
2022-12-14T04:57:19.470Z,100140.94
2022-12-14T04:59:48.699Z,100138.84
2022-12-14T05:02:24.581Z,100136.41
2022-12-14T05:05:02.346Z,100141.06
2022-12-14T05:07:43.612Z,100146.41
2022-12-14T05:10:20.202Z,100144.75
2022-12-14T05:12:59.077Z,100143.19
2022-12-14T05:15:33.111Z,100146.69
2022-12-14T05:18:04.356Z,100140.53
2022-12-14T05:20:33.012Z,100128.34
2022-12-14T05:23:02.660Z,100138.94
2022-12-14T05:25:31.064Z,100142.44
2022-12-14T05:27:59.322Z,100147.63
2022-12-14T05:30:27.753Z,100141.50
2022-12-14T05:32:56.115Z,100145.00
2022-12-14T05:35:24.428Z,100137.25
2022-12-14T05:37:52.743Z,100145.00
2022-12-14T05:40:22.387Z,100141.63
2022-12-14T05:42:55.498Z,100140.72
2022-12-14T05:45:24.294Z,100139.81
2022-12-14T05:47:52.514Z,100135.47
2022-12-14T05:50:20.815Z,100034.47
2022-12-14T05:52:52.199Z,100136.25
2022-12-14T05:55:21.786Z,100138.09
2022-12-14T05:57:49.989Z,100106.56
2022-12-14T06:00:18.857Z,100133.84
2022-12-14T06:02:47.177Z,100016.03
2022-12-14T06:05:15.845Z,100130.28
2022-12-14T06:07:44.085Z,100125.72
2022-12-14T06:10:12.393Z,100130.06
2022-12-14T06:12:41.950Z,100124.81
2022-12-14T06:15:11.398Z,100121.28
2022-12-14T06:17:44.141Z,100118.28
2022-12-14T06:20:13.377Z,100131.41
2022-12-14T06:22:47.336Z,100123.44
2022-12-14T06:25:16.253Z,100124.03
2022-12-14T06:27:45.829Z,100121.28
2022-12-14T06:30:14.947Z,100122.22
2022-12-14T06:32:43.157Z,100127.44
2022-12-14T06:35:11.535Z,100118.63
2022-12-14T06:37:39.787Z,100115.28
2022-12-14T06:40:09.826Z,100114.41
2022-12-14T06:42:38.078Z,100118.72
2022-12-14T06:45:09.024Z,100123.09
2022-12-14T06:47:37.303Z,100095.00
2022-12-14T06:50:06.633Z,100123.91
2022-12-14T06:52:34.920Z,100124.69
2022-12-14T06:55:03.208Z,100126.44
2022-12-14T06:57:31.475Z,100129.47
2022-12-14T06:59:59.759Z,100118.56
2022-12-14T07:02:29.576Z,100121.28
2022-12-14T07:04:58.098Z,100121.09
2022-12-14T07:07:26.368Z,100122.91
2022-12-14T07:09:54.643Z,100126.25
2022-12-14T07:12:22.856Z,100128.78
2022-12-14T07:14:51.813Z,100131.41
2022-12-14T07:17:20.314Z,100131.34
2022-12-14T07:19:50.134Z,100123.75
2022-12-14T07:22:18.615Z,100136.78
2022-12-14T07:24:46.933Z,100048.78
2022-12-14T07:27:15.202Z,100134.91
2022-12-14T07:29:44.786Z,100124.28
2022-12-14T07:32:13.102Z,100132.16
2022-12-14T07:34:41.575Z,100127.81
2022-12-14T07:37:11.240Z,100129.53
2022-12-14T07:39:39.526Z,100136.41
2022-12-14T07:42:07.926Z,100140.81
2022-12-14T07:44:36.166Z,100139.78
2022-12-14T07:47:04.385Z,100142.34
2022-12-14T07:49:32.659Z,100152.78
2022-12-14T07:52:00.892Z,100145.00
2022-12-14T07:54:30.847Z,100148.44
2022-12-14T07:56:59.183Z,100159.00
2022-12-14T07:59:27.458Z,100163.31
2022-12-14T08:01:56.691Z,100160.84
2022-12-14T08:04:25.075Z,100162.56
2022-12-14T08:06:53.851Z,100167.03
2022-12-14T08:09:22.386Z,100161.94
2022-12-14T08:11:52.071Z,100171.50
2022-12-14T08:14:20.807Z,100167.22
2022-12-14T08:16:50.720Z,100167.38
2022-12-14T08:19:20.628Z,100165.81
2022-12-14T08:21:48.954Z,100168.53
2022-12-14T08:24:17.961Z,100169.63
2022-12-14T08:26:49.047Z,100167.88
2022-12-14T08:29:20.956Z,100174.28
2022-12-14T08:31:49.251Z,100164.56
2022-12-14T08:34:22.628Z,100180.16
2022-12-14T08:36:51.375Z,100167.03
2022-12-14T08:39:19.775Z,100172.09
2022-12-14T08:41:48.328Z,100181.38
2022-12-14T08:44:18.744Z,100189.72
2022-12-14T08:46:48.705Z,100189.34
2022-12-14T08:49:17.210Z,100187.00
2022-12-14T08:51:45.530Z,100187.38
2022-12-14T08:54:14.116Z,100183.97
2022-12-14T08:56:42.494Z,100190.34
2022-12-14T08:59:19.810Z,100198.41
2022-12-14T09:02:00.173Z,100201.09
2022-12-14T09:04:28.733Z,100201.38
2022-12-14T09:06:57.517Z,100194.47
2022-12-14T09:09:26.180Z,100196.25
2022-12-14T09:11:54.453Z,100203.38
2022-12-14T09:14:22.796Z,100207.00
2022-12-14T09:16:51.163Z,100201.78
2022-12-14T09:19:20.840Z,100203.56
2022-12-14T09:21:49.090Z,100213.25
2022-12-14T09:24:17.419Z,100201.84
2022-12-14T09:26:46.947Z,100210.59
2022-12-14T09:29:16.534Z,100211.47
2022-12-14T09:31:45.573Z,100215.81
2022-12-14T09:34:14.284Z,100210.50
2022-12-14T09:36:44.116Z,100212.19
2022-12-14T09:39:14.882Z,100206.97
2022-12-14T09:42:01.325Z,100205.22
2022-12-14T09:44:44.914Z,100208.66
2022-12-14T09:47:17.745Z,100216.41
2022-12-14T09:49:51.080Z,100214.59
2022-12-14T09:52:24.186Z,100225.91
2022-12-14T09:54:52.994Z,100221.31
2022-12-14T09:57:30.105Z,100224.75
2022-12-14T09:59:58.464Z,100243.13
2022-12-14T10:02:41.408Z,100230.81
2022-12-14T10:05:47.039Z,100227.13
2022-12-14T10:08:26.076Z,100234.88
2022-12-14T10:11:03.683Z,100228.53
2022-12-14T10:13:45.798Z,100238.34
2022-12-14T10:16:24.503Z,100230.25
2022-12-14T10:19:13.684Z,100236.28
2022-12-14T10:21:51.031Z,100233.56
2022-12-14T10:24:24.770Z,100224.59
2022-12-14T10:26:55.662Z,100231.63
2022-12-14T10:29:32.479Z,100228.09
2022-12-14T10:32:13.761Z,100228.34
2022-12-14T10:34:44.568Z,100224.97
2022-12-14T10:37:23.553Z,100224.84
2022-12-14T10:40:12.455Z,100214.13
2022-12-14T10:42:57.409Z,100218.59
2022-12-14T10:45:41.533Z,100217.41
2022-12-14T10:48:42.194Z,100205.88
2022-12-14T10:51:14.147Z,100214.06
2022-12-14T10:53:48.849Z,100209.72
2022-12-14T10:56:24.314Z,100201.75
2022-12-14T10:59:26.596Z,100198.28
2022-12-14T11:02:02.753Z,100205.22
2022-12-14T11:04:35.843Z,100186.19
2022-12-14T11:07:07.194Z,100202.13
2022-12-14T11:09:36.891Z,100202.41
2022-12-14T11:12:16.169Z,100202.25
2022-12-14T11:14:56.107Z,100204.06
2022-12-14T11:17:37.766Z,100200.41
2022-12-14T11:20:23.255Z,100199.72
2022-12-14T11:22:54.983Z,100205.75
2022-12-14T11:25:37.643Z,100201.69
2022-12-14T11:28:35.985Z,100211.34
2022-12-14T11:31:07.695Z,100215.53
2022-12-14T11:33:41.151Z,100206.53
2022-12-14T11:36:10.896Z,100220.50
2022-12-14T11:38:39.182Z,100217.72
2022-12-14T11:41:11.741Z,100229.91
2022-12-14T11:43:41.918Z,100220.19
2022-12-14T11:46:10.414Z,100221.22
2022-12-14T11:48:49.072Z,100216.03
2022-12-14T11:51:17.401Z,100217.47
2022-12-14T11:54:02.431Z,100214.66
2022-12-14T11:56:30.809Z,100216.28
2022-12-14T11:59:00.651Z,100210.97
2022-12-14T12:01:29.182Z,100218.00
2022-12-14T12:04:00.880Z,100217.34
2022-12-14T12:06:31.104Z,100224.31
2022-12-14T12:09:02.168Z,100223.31
2022-12-14T12:11:33.937Z,100221.44
2022-12-14T12:14:26.517Z,100215.97
2022-12-14T12:16:55.097Z,100220.19
2022-12-14T12:19:31.220Z,100222.06
2022-12-14T12:22:02.519Z,100222.94
2022-12-14T12:24:41.634Z,100223.13
2022-12-14T12:27:19.549Z,100222.41
2022-12-14T12:29:55.378Z,100219.03
2022-12-14T12:32:28.063Z,100203.56
2022-12-14T12:35:11.275Z,100194.41
2022-12-14T12:37:46.060Z,100220.88
2022-12-14T12:40:25.587Z,100230.22
2022-12-14T12:43:00.155Z,100222.31
2022-12-14T12:45:35.736Z,100225.00
2022-12-14T12:48:11.311Z,100231.00
2022-12-14T12:50:49.777Z,100229.47
2022-12-14T12:53:23.500Z,100238.28
2022-12-14T12:55:55.064Z,100220.47
2022-12-14T12:58:27.806Z,100231.81
2022-12-14T13:01:03.604Z,100249.31
2022-12-14T13:03:38.874Z,100231.16
2022-12-14T13:06:17.202Z,100228.59
2022-12-14T13:08:49.759Z,100241.41
2022-12-14T13:11:26.461Z,100235.97
2022-12-14T13:14:00.993Z,100237.63
2022-12-14T13:16:34.809Z,100239.19
2022-12-14T13:19:48.142Z,100234.59
2022-12-14T13:22:05.863Z,100242.59
2022-12-14T13:24:37.335Z,100244.94
2022-12-14T13:27:48.677Z,100234.91
2022-12-14T13:30:27.083Z,100239.72
2022-12-14T13:33:31.003Z,100244.69
2022-12-14T13:36:31.106Z,100218.09
2022-12-14T13:39:30.831Z,100242.31
2022-12-14T13:42:08.373Z,100238.59
2022-12-14T13:44:52.687Z,100232.38
2022-12-14T13:47:23.976Z,100239.41
2022-12-14T13:50:34.253Z,100239.25
2022-12-14T13:52:48.585Z,100241.09
2022-12-14T13:55:36.754Z,100235.59
2022-12-14T13:58:18.777Z,100240.75
2022-12-14T14:00:59.929Z,100235.19
2022-12-14T14:03:53.713Z,100244.69
2022-12-14T14:06:39.013Z,100236.75
2022-12-14T14:10:00.354Z,100245.84
2022-12-14T14:12:44.897Z,100244.50
2022-12-14T14:15:31.475Z,100247.47
2022-12-14T14:18:14.401Z,100243.41
2022-12-14T14:20:46.841Z,100243.41
2022-12-14T14:23:37.035Z,100235.44
2022-12-14T14:26:23.641Z,100243.97
2022-12-14T14:29:27.295Z,100241.16
2022-12-14T14:31:59.784Z,100230.63
2022-12-14T14:34:40.737Z,100245.69
2022-12-14T14:37:25.185Z,100237.84
2022-12-14T14:40:16.613Z,100224.94
2022-12-14T14:42:54.169Z,100220.59
2022-12-14T14:45:32.171Z,100250.50
2022-12-14T14:48:03.351Z,100245.34
2022-12-14T14:50:36.844Z,100252.50
2022-12-14T14:53:30.713Z,100248.19
2022-12-14T14:56:07.555Z,100247.38
2022-12-14T14:58:38.773Z,100252.72
2022-12-14T15:01:25.650Z,100246.66
2022-12-14T15:03:58.638Z,100256.47
2022-12-14T15:06:30.283Z,100247.75
2022-12-14T15:09:06.041Z,100247.00
2022-12-14T15:11:45.983Z,100248.81
2022-12-14T15:14:31.544Z,100255.13
2022-12-14T15:17:04.054Z,100246.38
2022-12-14T15:19:36.023Z,100249.94
2022-12-14T15:22:07.590Z,100248.22
2022-12-14T15:24:42.362Z,100254.38
2022-12-14T15:27:25.606Z,100254.41
2022-12-14T15:29:54.547Z,100263.16
2022-12-14T15:32:25.358Z,100268.44
2022-12-14T15:34:58.240Z,100259.66
2022-12-14T15:37:31.020Z,100250.03
2022-12-14T15:40:07.954Z,100270.19
2022-12-14T15:42:47.977Z,100279.81
2022-12-14T15:45:20.049Z,100275.41
2022-12-14T15:47:49.234Z,100291.13
2022-12-14T15:50:29.641Z,100276.94
2022-12-14T15:53:02.621Z,100271.69
2022-12-14T15:55:36.998Z,100314.50
2022-12-14T15:58:16.937Z,100295.31
2022-12-14T16:00:49.188Z,100285.59
2022-12-14T16:03:27.488Z,100285.59
2022-12-14T16:05:56.725Z,100282.00
2022-12-14T16:08:26.273Z,100282.78
2022-12-14T16:10:57.378Z,100281.78
2022-12-14T16:13:32.248Z,100290.50
2022-12-14T16:16:09.219Z,100289.63
2022-12-14T16:18:41.138Z,100305.38
2022-12-14T16:21:28.986Z,100301.66
2022-12-14T16:23:57.878Z,100304.16
2022-12-14T16:26:28.212Z,100281.41
2022-12-14T16:29:23.049Z,100297.13
2022-12-14T16:31:51.666Z,100298.03
2022-12-14T16:34:23.520Z,100290.09
2022-12-14T16:37:23.205Z,100284.78
2022-12-14T16:39:46.839Z,100286.59
2022-12-14T16:42:20.639Z,100286.53
2022-12-14T16:44:53.834Z,100287.41
2022-12-14T16:47:31.766Z,100302.25
2022-12-14T16:50:00.649Z,100288.22
2022-12-14T16:52:31.201Z,100287.19
2022-12-14T16:55:11.872Z,100291.47
2022-12-14T16:57:43.427Z,100291.47
2022-12-14T17:00:24.818Z,100296.56
2022-12-14T17:03:00.212Z,100298.19
2022-12-14T17:05:34.428Z,100293.78
2022-12-14T17:08:03.193Z,100289.59
2022-12-14T17:10:32.716Z,100296.50
2022-12-14T17:13:03.225Z,100257.81
2022-12-14T17:15:34.764Z,100299.84
2022-12-14T17:18:05.681Z,100286.56
2022-12-14T17:20:37.021Z,100283.75
2022-12-14T17:23:09.200Z,100285.25
2022-12-14T17:25:37.618Z,100294.56
2022-12-14T17:28:18.448Z,100286.59
2022-12-14T17:30:48.627Z,100293.47
2022-12-14T17:33:17.154Z,100294.22
2022-12-14T17:35:45.799Z,100306.66
2022-12-14T17:38:16.153Z,100300.53
2022-12-14T17:40:46.521Z,100293.03
2022-12-14T17:43:27.232Z,100297.66
2022-12-14T17:46:01.063Z,100288.34
2022-12-14T17:48:30.304Z,100285.81
2022-12-14T17:50:58.599Z,100292.06
2022-12-14T17:53:30.930Z,100262.41
2022-12-14T17:55:59.608Z,100294.06
2022-12-14T17:58:27.877Z,100287.75
2022-12-14T18:01:04.050Z,100288.63
2022-12-14T18:03:36.225Z,100285.34
2022-12-14T18:06:05.691Z,100252.06
2022-12-14T18:08:33.988Z,100293.50
2022-12-14T18:11:11.871Z,100289.28
2022-12-14T18:13:42.625Z,100294.28
2022-12-14T18:16:17.999Z,100293.13
2022-12-14T18:18:46.768Z,100281.53
2022-12-14T18:21:20.352Z,100299.91
2022-12-14T18:23:50.096Z,100278.69
2022-12-14T18:26:21.121Z,100277.69
2022-12-14T18:28:50.219Z,100294.16
2022-12-14T18:31:28.437Z,100303.69
2022-12-14T18:33:56.830Z,100283.59
2022-12-14T18:36:25.402Z,100302.88
2022-12-14T18:38:53.882Z,100306.44
2022-12-14T18:41:24.698Z,100302.97
2022-12-14T18:43:54.333Z,100302.06
2022-12-14T18:46:24.930Z,100308.13
2022-12-14T18:48:53.674Z,100302.06
2022-12-14T18:51:26.203Z,100308.22
2022-12-14T18:53:56.152Z,100303.91
2022-12-14T18:56:28.336Z,100297.97
2022-12-14T18:58:56.800Z,100306.03
2022-12-14T19:01:26.547Z,100304.44
2022-12-14T19:03:55.309Z,100313.25
2022-12-14T19:09:14.947Z,100316.03
2022-12-14T19:11:44.423Z,100334.38
2022-12-14T19:14:13.414Z,100332.59
2022-12-14T19:16:43.135Z,100329.22
2022-12-14T19:19:11.482Z,100339.69
2022-12-14T19:21:39.759Z,100336.25
2022-12-14T19:24:09.567Z,100339.19
2022-12-14T19:26:39.496Z,100341.75
2022-12-14T19:29:08.151Z,100334.00
2022-12-14T19:31:36.803Z,100346.22
2022-12-14T19:34:06.866Z,100349.97
2022-12-14T19:36:35.147Z,100351.88
2022-12-14T19:39:03.693Z,100354.50
2022-12-14T19:41:32.326Z,100241.03
2022-12-14T19:44:00.668Z,100354.22
2022-12-14T19:46:29.379Z,100354.22
2022-12-14T19:48:59.661Z,100372.41
2022-12-14T19:51:29.515Z,100352.31
2022-12-14T19:53:57.822Z,100346.03
2022-12-14T19:56:26.231Z,100357.13
2022-12-14T19:58:57.954Z,100357.13
2022-12-14T20:01:26.365Z,100269.75
2022-12-14T20:03:54.963Z,100363.56
2022-12-14T20:06:23.519Z,100361.06
2022-12-14T20:08:53.122Z,100359.63
2022-12-14T20:11:21.476Z,100358.75
2022-12-14T20:13:56.261Z,100368.47
2022-12-14T20:16:27.381Z,100368.53
2022-12-14T20:18:56.548Z,100365.06
2022-12-14T20:21:29.167Z,100367.78
2022-12-14T20:24:00.042Z,100338.88
2022-12-14T20:26:30.017Z,100362.66
2022-12-14T20:29:04.953Z,100356.53
2022-12-14T20:31:33.816Z,100372.19
2022-12-14T20:34:03.291Z,100368.66
2022-12-14T20:36:33.725Z,100376.50
2022-12-14T20:39:03.292Z,100379.44
2022-12-14T20:41:32.666Z,100385.75
2022-12-14T20:44:03.044Z,100389.00
2022-12-14T20:46:34.186Z,100425.75
2022-12-14T20:49:05.483Z,100434.75
2022-12-14T20:51:36.759Z,100437.56
2022-12-14T20:54:08.713Z,100445.66
2022-12-14T20:56:37.211Z,100435.22
2022-12-14T20:59:06.654Z,100428.84
2022-12-14T21:01:37.204Z,100438.78
2022-12-14T21:04:06.906Z,100436.38
2022-12-14T21:06:39.492Z,100421.84
2022-12-14T21:09:13.017Z,100438.59
2022-12-14T21:12:02.915Z,100423.19
2022-12-14T21:14:33.996Z,100403.06
2022-12-14T21:17:03.849Z,100412.88
2022-12-14T21:19:33.250Z,100420.59
2022-12-14T21:22:01.547Z,100412.72
2022-12-14T21:27:23.804Z,100412.06
2022-12-14T21:29:53.068Z,100405.28
2022-12-14T21:32:22.822Z,100407.91
2022-12-14T21:34:51.613Z,100418.38
2022-12-14T21:37:20.787Z,100423.63
2022-12-14T21:39:55.277Z,100421.06
2022-12-14T21:42:24.314Z,100419.38
2022-12-14T21:44:55.163Z,100413.31
2022-12-14T21:47:26.521Z,100389.59
2022-12-14T21:49:55.172Z,100419.56
2022-12-14T21:52:26.754Z,100420.47
2022-12-14T21:54:58.556Z,100420.56
2022-12-14T21:57:50.419Z,100424.88
2022-12-14T22:00:20.194Z,100423.25
2022-12-14T22:02:48.929Z,100391.56
2022-12-14T22:05:17.516Z,100418.78
2022-12-14T22:07:46.743Z,100418.72
2022-12-14T22:10:22.875Z,100426.53
2022-12-14T22:12:53.111Z,100427.44
2022-12-14T22:15:21.449Z,100422.19
2022-12-14T22:17:51.739Z,100440.22
2022-12-14T22:20:20.124Z,100436.91
2022-12-14T22:22:48.423Z,100446.34
2022-12-14T22:25:18.276Z,100453.06
2022-12-14T22:27:49.555Z,100399.25
2022-12-14T22:30:19.011Z,100458.22
2022-12-14T22:32:47.821Z,100353.09
2022-12-14T22:35:16.378Z,100464.06
2022-12-14T22:37:44.644Z,100449.16
2022-12-14T22:40:14.181Z,100450.56
2022-12-14T22:42:43.889Z,100459.53
2022-12-14T22:45:12.431Z,100448.34
2022-12-14T22:47:40.662Z,100452.88
2022-12-14T22:50:10.266Z,100447.63
2022-12-14T22:52:38.580Z,100449.34
2022-12-14T22:55:07.900Z,100448.47
2022-12-14T22:57:41.579Z,100445.00
2022-12-14T23:00:16.523Z,100447.63
2022-12-14T23:02:48.323Z,100453.78
2022-12-14T23:05:17.670Z,100446.75
2022-12-14T23:07:45.928Z,100451.94
2022-12-14T23:10:31.773Z,100451.09
2022-12-14T23:13:17.300Z,100450.97
2022-12-14T23:16:04.517Z,100455.06
2022-12-14T23:18:50.480Z,100453.97
2022-12-14T23:21:36.603Z,100455.41
2022-12-14T23:24:24.557Z,100471.97
2022-12-14T23:27:10.335Z,100463.91
2022-12-14T23:29:56.269Z,100462.09
2022-12-14T23:32:43.558Z,100463.22
2022-12-14T23:35:29.233Z,100472.00
2022-12-14T23:38:14.890Z,100476.22
2022-12-14T23:41:00.775Z,100474.47
2022-12-14T23:43:46.437Z,100477.00
2022-12-14T23:46:32.476Z,100484.72
2022-12-14T23:49:19.645Z,100476.72
2022-12-14T23:52:05.596Z,100481.97
2022-12-14T23:54:51.760Z,100479.31
2022-12-14T23:57:37.767Z,100480.25
